This is the latest recevied weather packets stored in our database for station/object IZ1BLA-10. If no packets are shown the sender has not sent any weather packets the latest 10 day(s).
| Time | Temp. | Humidity | Pressure | Rain* | Wind** | Luminosity | Snow |
|---|---|---|---|---|---|---|---|
| 1777688348 | 6.67° C | 82% | 1028.4 hPa | - | - | - | - |
| 1777687747 | 7.22° C | 83% | 1028.3 hPa | - | - | - | - |
| 1777687147 | 7.22° C | 83% | 1028.2 hPa | - | - | - | - |
| 1777686547 | 7.22° C | 82% | 1028.2 hPa | - | - | - | - |
| 1777685947 | 7.22° C | 83% | 1028.1 hPa | - | - | - | - |
| 1777685347 | 7.22° C | 86% | 1028.2 hPa | - | - | - | - |
| 1777684747 | 7.22° C | 87% | 1028.1 hPa | - | - | - | - |
| 1777684147 | 7.22° C | 88% | 1028.2 hPa | - | - | - | - |
| 1777683547 | 7.78° C | 88% | 1028 hPa | - | - | - | - |
| 1777682947 | 7.22° C | 91% | 1028.1 hPa | - | - | - | - |
| 1777682347 | 7.78° C | 86% | 1028.1 hPa | - | - | - | - |
| 1777681746 | 7.78° C | 84% | 1028 hPa | - | - | - | - |
| 1777681146 | 7.78° C | 86% | 1027.9 hPa | - | - | - | - |
| 1777680547 | 8.33° C | 85% | 1028 hPa | - | - | - | - |
| 1777679947 | 8.33° C | 88% | 1028.1 hPa | - | - | - | - |
| 1777679346 | 8.33° C | 85% | 1028 hPa | - | - | - | - |
| 1777678747 | 9.44° C | 76% | 1027.8 hPa | - | - | - | - |
| 1777678147 | 9.44° C | 71% | 1027.8 hPa | - | - | - | - |
| 1777677546 | 12.22° C | 61% | 1026.9 hPa | - | - | - | - |
| 1777676946 | 11.67° C | 68% | 1027.1 hPa | - | - | - | - |
| 1777676347 | 12.78° C | 63% | 1026.5 hPa | - | - | - | - |
| 1777675746 | 12.22° C | 67% | 1026.9 hPa | - | - | - | - |
| 1777675146 | 11.67° C | 69% | 1026.9 hPa | - | - | - | - |
| 1777673947 | 10.56° C | 78% | 1027.1 hPa | - | - | - | - |
| 1777673346 | 10° C | 79% | 1027.2 hPa | - | - | - | - |
* Rain since midnight (hover to see other rain measurements)
** Current wind speed in m/s (hover to see current wind gust speed)